Terminal Aerodrome Forecast
Issued by NWS

Home | Current Version | Previous Version | Text Only | Print | Product List | Glossary On
Versions: 1 2 3 4 5 6 7 8 9 10 11 12 13 14 15 16
000
FTUS44 KCRP 231100
TAFALI
TAF
KALI 231132Z 2312/2412 13005KT P6SM BKN005
      TEMPO 2312/2314 5SM BR SCT004
     FM231430 15011KT P6SM SCT020
     FM231800 14016G22KT P6SM FEW040 BKN250
     FM240200 14012KT P6SM SCT015 BKN250
     FM240500 15011KT P6SM OVC012
     FM240800 16008KT P6SM OVC005=

USA.gov is the U.S. government's official web portal to all federal, state and local government web resources and services.